sensor_id;sensor_type;location;lat;lon;timestamp;temperature;humidity
79571;DHT22;69034;49.444;7.758;2023-08-24T00:02:52;25.60;53.20
79571;DHT22;69034;49.444;7.758;2023-08-24T00:06:53;25.50;53.10
79571;DHT22;69034;49.444;7.758;2023-08-24T00:10:53;25.50;53.10
79571;DHT22;69034;49.444;7.758;2023-08-24T00:14:55;25.50;53.30
79571;DHT22;69034;49.444;7.758;2023-08-24T00:18:55;25.40;53.40
79571;DHT22;69034;49.444;7.758;2023-08-24T00:22:56;25.40;53.50
79571;DHT22;69034;49.444;7.758;2023-08-24T00:26:57;25.50;53.40
79571;DHT22;69034;49.444;7.758;2023-08-24T00:30:58;25.50;53.30
79571;DHT22;69034;49.444;7.758;2023-08-24T00:34:58;25.50;53.30
79571;DHT22;69034;49.444;7.758;2023-08-24T00:38:59;25.50;53.30
79571;DHT22;69034;49.444;7.758;2023-08-24T00:43:00;25.50;53.20
79571;DHT22;69034;49.444;7.758;2023-08-24T00:47:01;25.40;53.30
79571;DHT22;69034;49.444;7.758;2023-08-24T00:51:02;25.40;53.30
79571;DHT22;69034;49.444;7.758;2023-08-24T00:55:03;25.20;53.40
79571;DHT22;69034;49.444;7.758;2023-08-24T00:59:05;25.20;53.60
79571;DHT22;69034;49.444;7.758;2023-08-24T01:03:05;25.10;53.50
79571;DHT22;69034;49.444;7.758;2023-08-24T01:07:06;24.90;53.70
79571;DHT22;69034;49.444;7.758;2023-08-24T01:11:18;24.80;53.80
79571;DHT22;69034;49.444;7.758;2023-08-24T01:19:44;24.50;54.40
79571;DHT22;69034;49.444;7.758;2023-08-24T01:23:53;24.30;54.80
79571;DHT22;69034;49.444;7.758;2023-08-24T01:27:59;24.20;54.80
79571;DHT22;69034;49.444;7.758;2023-08-24T01:32:00;24.20;54.90
79571;DHT22;69034;49.444;7.758;2023-08-24T01:36:01;24.20;55.00
79571;DHT22;69034;49.444;7.758;2023-08-24T01:40:17;24.20;55.20
79571;DHT22;69034;49.444;7.758;2023-08-24T01:44:21;24.10;55.70
79571;DHT22;69034;49.444;7.758;2023-08-24T01:48:25;24.00;55.80
79571;DHT22;69034;49.444;7.758;2023-08-24T01:52:26;23.90;55.90
79571;DHT22;69034;49.444;7.758;2023-08-24T01:56:27;23.80;56.10
79571;DHT22;69034;49.444;7.758;2023-08-24T02:00:28;23.70;56.20
79571;DHT22;69034;49.444;7.758;2023-08-24T02:04:29;23.70;56.40
79571;DHT22;69034;49.444;7.758;2023-08-24T02:08:29;23.60;56.40
79571;DHT22;69034;49.444;7.758;2023-08-24T02:12:30;23.70;56.30
79571;DHT22;69034;49.444;7.758;2023-08-24T02:16:30;23.70;56.30
79571;DHT22;69034;49.444;7.758;2023-08-24T02:20:37;23.70;56.30
79571;DHT22;69034;49.444;7.758;2023-08-24T02:24:39;23.70;56.40
79571;DHT22;69034;49.444;7.758;2023-08-24T02:28:39;23.60;56.60
79571;DHT22;69034;49.444;7.758;2023-08-24T02:32:40;23.80;56.50
79571;DHT22;69034;49.444;7.758;2023-08-24T02:36:41;23.90;56.50
79571;DHT22;69034;49.444;7.758;2023-08-24T02:40:42;24.10;56.50
79571;DHT22;69034;49.444;7.758;2023-08-24T02:44:43;24.10;56.40
79571;DHT22;69034;49.444;7.758;2023-08-24T02:48:44;24.30;56.10
79571;DHT22;69034;49.444;7.758;2023-08-24T02:52:46;24.50;55.80
79571;DHT22;69034;49.444;7.758;2023-08-24T02:56:47;24.50;55.70
79571;DHT22;69034;49.444;7.758;2023-08-24T03:00:47;24.60;55.70
79571;DHT22;69034;49.444;7.758;2023-08-24T03:04:48;24.60;55.70
79571;DHT22;69034;49.444;7.758;2023-08-24T03:08:49;24.60;55.50
79571;DHT22;69034;49.444;7.758;2023-08-24T03:12:49;24.70;55.40
79571;DHT22;69034;49.444;7.758;2023-08-24T03:16:51;24.60;55.50
79571;DHT22;69034;49.444;7.758;2023-08-24T03:20:52;24.50;55.40
79571;DHT22;69034;49.444;7.758;2023-08-24T03:24:52;24.30;55.50
79571;DHT22;69034;49.444;7.758;2023-08-24T03:28:53;24.30;55.50
79571;DHT22;69034;49.444;7.758;2023-08-24T03:32:54;24.40;55.40
79571;DHT22;69034;49.444;7.758;2023-08-24T03:36:54;24.50;55.20
79571;DHT22;69034;49.444;7.758;2023-08-24T03:41:02;24.50;55.20
79571;DHT22;69034;49.444;7.758;2023-08-24T03:45:04;24.50;55.10
79571;DHT22;69034;49.444;7.758;2023-08-24T03:49:07;24.50;55.10
79571;DHT22;69034;49.444;7.758;2023-08-24T03:53:09;24.50;55.00
79571;DHT22;69034;49.444;7.758;2023-08-24T03:57:10;24.50;54.90
79571;DHT22;69034;49.444;7.758;2023-08-24T04:01:11;24.50;54.80
79571;DHT22;69034;49.444;7.758;2023-08-24T04:05:12;24.50;54.80
79571;DHT22;69034;49.444;7.758;2023-08-24T04:09:12;24.50;54.70
79571;DHT22;69034;49.444;7.758;2023-08-24T04:13:14;24.60;54.70
79571;DHT22;69034;49.444;7.758;2023-08-24T04:17:14;24.60;54.70
79571;DHT22;69034;49.444;7.758;2023-08-24T04:21:15;24.60;54.50
79571;DHT22;69034;49.444;7.758;2023-08-24T04:25:17;24.70;54.30
79571;DHT22;69034;49.444;7.758;2023-08-24T04:29:18;24.70;54.30
79571;DHT22;69034;49.444;7.758;2023-08-24T04:33:19;24.70;54.30
79571;DHT22;69034;49.444;7.758;2023-08-24T04:37:19;24.70;54.20
79571;DHT22;69034;49.444;7.758;2023-08-24T04:41:20;24.70;54.00
79571;DHT22;69034;49.444;7.758;2023-08-24T04:45:21;24.60;54.00
79571;DHT22;69034;49.444;7.758;2023-08-24T04:49:21;24.50;54.00
79571;DHT22;69034;49.444;7.758;2023-08-24T04:53:22;24.30;54.30
79571;DHT22;69034;49.444;7.758;2023-08-24T04:57:23;24.00;54.80
79571;DHT22;69034;49.444;7.758;2023-08-24T05:01:24;23.70;55.40
79571;DHT22;69034;49.444;7.758;2023-08-24T05:05:29;23.70;55.30
79571;DHT22;69034;49.444;7.758;2023-08-24T05:09:30;23.70;55.40
79571;DHT22;69034;49.444;7.758;2023-08-24T05:13:31;23.60;55.40
79571;DHT22;69034;49.444;7.758;2023-08-24T05:17:31;23.60;55.20
79571;DHT22;69034;49.444;7.758;2023-08-24T05:21:32;23.70;54.90
79571;DHT22;69034;49.444;7.758;2023-08-24T05:25:34;23.80;54.70
79571;DHT22;69034;49.444;7.758;2023-08-24T05:29:35;24.00;54.40
79571;DHT22;69034;49.444;7.758;2023-08-24T05:33:36;24.10;54.30
79571;DHT22;69034;49.444;7.758;2023-08-24T05:37:38;24.10;54.40
79571;DHT22;69034;49.444;7.758;2023-08-24T05:41:38;24.10;54.50
79571;DHT22;69034;49.444;7.758;2023-08-24T05:45:39;24.10;54.50
79571;DHT22;69034;49.444;7.758;2023-08-24T05:49:42;24.20;54.40
79571;DHT22;69034;49.444;7.758;2023-08-24T05:53:43;24.20;54.40
79571;DHT22;69034;49.444;7.758;2023-08-24T05:57:43;24.20;54.40
79571;DHT22;69034;49.444;7.758;2023-08-24T06:01:44;24.20;54.30
79571;DHT22;69034;49.444;7.758;2023-08-24T06:05:46;24.40;54.20
79571;DHT22;69034;49.444;7.758;2023-08-24T06:09:46;24.50;54.00
79571;DHT22;69034;49.444;7.758;2023-08-24T06:13:47;24.60;53.80
79571;DHT22;69034;49.444;7.758;2023-08-24T06:17:48;24.80;53.70
79571;DHT22;69034;49.444;7.758;2023-08-24T06:21:48;25.20;53.20
79571;DHT22;69034;49.444;7.758;2023-08-24T06:25:50;25.50;52.60
79571;DHT22;69034;49.444;7.758;2023-08-24T06:29:50;25.80;52.20
79571;DHT22;69034;49.444;7.758;2023-08-24T06:33:51;26.10;51.80
79571;DHT22;69034;49.444;7.758;2023-08-24T06:37:51;26.40;51.30
79571;DHT22;69034;49.444;7.758;2023-08-24T06:41:52;26.70;50.80
79571;DHT22;69034;49.444;7.758;2023-08-24T06:45:54;27.10;50.20
79571;DHT22;69034;49.444;7.758;2023-08-24T06:49:55;27.60;49.50
79571;DHT22;69034;49.444;7.758;2023-08-24T06:53:56;28.10;48.70
79571;DHT22;69034;49.444;7.758;2023-08-24T06:57:57;28.60;48.00
79571;DHT22;69034;49.444;7.758;2023-08-24T07:02:10;28.80;47.70
79571;DHT22;69034;49.444;7.758;2023-08-24T07:06:11;28.80;47.60
79571;DHT22;69034;49.444;7.758;2023-08-24T07:10:14;28.70;47.70
79571;DHT22;69034;49.444;7.758;2023-08-24T07:14:14;28.50;47.70
79571;DHT22;69034;49.444;7.758;2023-08-24T07:18:15;28.30;47.80
79571;DHT22;69034;49.444;7.758;2023-08-24T07:22:16;28.00;47.80
79571;DHT22;69034;49.444;7.758;2023-08-24T07:26:17;27.90;47.80
79571;DHT22;69034;49.444;7.758;2023-08-24T07:30:18;28.20;47.50
79571;DHT22;69034;49.444;7.758;2023-08-24T07:34:19;28.60;47.20
79571;DHT22;69034;49.444;7.758;2023-08-24T07:38:19;29.00;46.70
79571;DHT22;69034;49.444;7.758;2023-08-24T07:42:21;29.40;46.30
79571;DHT22;69034;49.444;7.758;2023-08-24T07:46:22;29.80;45.80
79571;DHT22;69034;49.444;7.758;2023-08-24T07:50:22;30.30;45.20
79571;DHT22;69034;49.444;7.758;2023-08-24T07:54:23;31.00;44.20
79571;DHT22;69034;49.444;7.758;2023-08-24T07:58:24;31.50;43.60
79571;DHT22;69034;49.444;7.758;2023-08-24T08:02:25;31.40;43.20
79571;DHT22;69034;49.444;7.758;2023-08-24T08:06:26;31.30;43.30
79571;DHT22;69034;49.444;7.758;2023-08-24T08:10:29;31.50;42.90
79571;DHT22;69034;49.444;7.758;2023-08-24T08:14:30;31.60;42.70
79571;DHT22;69034;49.444;7.758;2023-08-24T08:18:35;31.80;42.50
79571;DHT22;69034;49.444;7.758;2023-08-24T08:22:36;32.10;42.10
79571;DHT22;69034;49.444;7.758;2023-08-24T08:26:38;32.20;41.90
79571;DHT22;69034;49.444;7.758;2023-08-24T08:30:39;32.10;42.00
79571;DHT22;69034;49.444;7.758;2023-08-24T08:34:40;32.00;41.90
79571;DHT22;69034;49.444;7.758;2023-08-24T08:38:41;32.30;41.00
79571;DHT22;69034;49.444;7.758;2023-08-24T08:42:41;32.70;40.70
79571;DHT22;69034;49.444;7.758;2023-08-24T08:46:43;33.10;40.20
79571;DHT22;69034;49.444;7.758;2023-08-24T08:50:44;33.30;39.70
79571;DHT22;69034;49.444;7.758;2023-08-24T08:54:46;33.50;39.30
79571;DHT22;69034;49.444;7.758;2023-08-24T08:58:47;33.70;38.70
79571;DHT22;69034;49.444;7.758;2023-08-24T09:02:49;34.00;38.10
79571;DHT22;69034;49.444;7.758;2023-08-24T09:06:51;34.20;37.50
79571;DHT22;69034;49.444;7.758;2023-08-24T09:10:53;34.40;37.10
79571;DHT22;69034;49.444;7.758;2023-08-24T09:14:54;34.60;36.80
79571;DHT22;69034;49.444;7.758;2023-08-24T09:18:56;34.90;36.40
79571;DHT22;69034;49.444;7.758;2023-08-24T09:22:57;35.20;35.80
79571;DHT22;69034;49.444;7.758;2023-08-24T09:26:58;35.50;34.80
79571;DHT22;69034;49.444;7.758;2023-08-24T09:31:00;35.70;34.20
79571;DHT22;69034;49.444;7.758;2023-08-24T09:35:09;35.60;34.10
79571;DHT22;69034;49.444;7.758;2023-08-24T09:39:09;35.60;33.90
79571;DHT22;69034;49.444;7.758;2023-08-24T09:43:12;35.40;34.00
79571;DHT22;69034;49.444;7.758;2023-08-24T09:47:13;35.30;33.90
79571;DHT22;69034;49.444;7.758;2023-08-24T09:51:14;35.60;33.60
79571;DHT22;69034;49.444;7.758;2023-08-24T09:55:19;36.00;33.10
79571;DHT22;69034;49.444;7.758;2023-08-24T09:59:23;36.70;32.70
79571;DHT22;69034;49.444;7.758;2023-08-24T10:03:26;37.30;31.70
79571;DHT22;69034;49.444;7.758;2023-08-24T10:07:27;37.80;31.00
79571;DHT22;69034;49.444;7.758;2023-08-24T10:11:28;37.90;30.10
79571;DHT22;69034;49.444;7.758;2023-08-24T10:15:31;38.10;29.90
79571;DHT22;69034;49.444;7.758;2023-08-24T10:19:33;38.60;29.60
79571;DHT22;69034;49.444;7.758;2023-08-24T10:23:37;38.90;29.20
79571;DHT22;69034;49.444;7.758;2023-08-24T10:27:42;39.00;28.80
79571;DHT22;69034;49.444;7.758;2023-08-24T10:31:44;38.90;28.50
79571;DHT22;69034;49.444;7.758;2023-08-24T10:35:45;39.40;29.00
79571;DHT22;69034;49.444;7.758;2023-08-24T10:39:47;39.70;28.50
79571;DHT22;69034;49.444;7.758;2023-08-24T10:43:50;40.00;28.30
79571;DHT22;69034;49.444;7.758;2023-08-24T10:47:52;40.60;28.20
79571;DHT22;69034;49.444;7.758;2023-08-24T10:51:54;42.20;27.10
79571;DHT22;69034;49.444;7.758;2023-08-24T10:56:10;42.10;26.50
79571;DHT22;69034;49.444;7.758;2023-08-24T11:00:12;41.80;26.30
79571;DHT22;69034;49.444;7.758;2023-08-24T11:04:13;42.10;26.40
79571;DHT22;69034;49.444;7.758;2023-08-24T11:08:14;41.80;25.60
79571;DHT22;69034;49.444;7.758;2023-08-24T11:12:14;41.40;25.90
79571;DHT22;69034;49.444;7.758;2023-08-24T11:16:38;41.40;25.80
79571;DHT22;69034;49.444;7.758;2023-08-24T11:20:43;41.40;25.90
79571;DHT22;69034;49.444;7.758;2023-08-24T11:24:45;41.20;25.70
79571;DHT22;69034;49.444;7.758;2023-08-24T11:28:46;41.10;25.90
79571;DHT22;69034;49.444;7.758;2023-08-24T11:32:52;41.30;26.10
79571;DHT22;69034;49.444;7.758;2023-08-24T11:36:53;41.40;26.10
79571;DHT22;69034;49.444;7.758;2023-08-24T11:40:54;41.30;26.20
79571;DHT22;69034;49.444;7.758;2023-08-24T11:44:55;41.20;26.30
79571;DHT22;69034;49.444;7.758;2023-08-24T11:48:57;41.10;26.40
79571;DHT22;69034;49.444;7.758;2023-08-24T11:53:00;41.20;26.60
79571;DHT22;69034;49.444;7.758;2023-08-24T11:57:06;41.40;26.80
79571;DHT22;69034;49.444;7.758;2023-08-24T12:01:08;41.50;26.90
79571;DHT22;69034;49.444;7.758;2023-08-24T12:05:24;41.80;26.90
79571;DHT22;69034;49.444;7.758;2023-08-24T12:09:29;41.80;26.90
79571;DHT22;69034;49.444;7.758;2023-08-24T12:13:33;41.80;27.10
79571;DHT22;69034;49.444;7.758;2023-08-24T12:17:44;41.80;27.20
79571;DHT22;69034;49.444;7.758;2023-08-24T12:21:45;41.50;27.40
79571;DHT22;69034;49.444;7.758;2023-08-24T12:25:53;40.90;27.90
79571;DHT22;69034;49.444;7.758;2023-08-24T12:29:54;40.60;28.30
79571;DHT22;69034;49.444;7.758;2023-08-24T12:34:05;40.80;28.60
79571;DHT22;69034;49.444;7.758;2023-08-24T12:38:06;42.70;27.80
79571;DHT22;69034;49.444;7.758;2023-08-24T12:42:07;46.70;25.10
79571;DHT22;69034;49.444;7.758;2023-08-24T12:46:07;47.90;24.70
79571;DHT22;69034;49.444;7.758;2023-08-24T12:50:08;48.30;24.60
79571;DHT22;69034;49.444;7.758;2023-08-24T12:54:09;48.10;19.90
79571;DHT22;69034;49.444;7.758;2023-08-24T12:58:09;45.70;25.10
79571;DHT22;69034;49.444;7.758;2023-08-24T13:02:11;43.80;26.10
79571;DHT22;69034;49.444;7.758;2023-08-24T13:06:12;42.90;26.60
79571;DHT22;69034;49.444;7.758;2023-08-24T13:10:13;43.90;26.30
79571;DHT22;69034;49.444;7.758;2023-08-24T13:14:14;46.60;24.60
79571;DHT22;69034;49.444;7.758;2023-08-24T13:18:15;47.10;24.10
79571;DHT22;69034;49.444;7.758;2023-08-24T13:22:17;46.70;24.20
79571;DHT22;69034;49.444;7.758;2023-08-24T13:26:21;45.40;24.70
79571;DHT22;69034;49.444;7.758;2023-08-24T13:30:23;43.60;25.70
79571;DHT22;69034;49.444;7.758;2023-08-24T13:34:25;40.80;28.50
79571;DHT22;69034;49.444;7.758;2023-08-24T13:38:26;38.60;30.70
79571;DHT22;69034;49.444;7.758;2023-08-24T13:42:26;37.10;32.70
79571;DHT22;69034;49.444;7.758;2023-08-24T13:46:27;36.20;33.60
79571;DHT22;69034;49.444;7.758;2023-08-24T13:50:28;35.50;34.30
79571;DHT22;69034;49.444;7.758;2023-08-24T13:54:28;34.80;35.10
79571;DHT22;69034;49.444;7.758;2023-08-24T13:58:30;34.20;36.00
79571;DHT22;69034;49.444;7.758;2023-08-24T14:02:31;33.70;36.90
79571;DHT22;69034;49.444;7.758;2023-08-24T14:06:33;33.30;37.40
79571;DHT22;69034;49.444;7.758;2023-08-24T14:10:35;32.90;37.80
79571;DHT22;69034;49.444;7.758;2023-08-24T14:19:19;32.30;39.80
79571;DHT22;69034;49.444;7.758;2023-08-24T14:23:19;32.00;40.30
79571;DHT22;69034;49.444;7.758;2023-08-24T14:27:20;31.80;41.60
79571;DHT22;69034;49.444;7.758;2023-08-24T14:31:22;31.50;42.70
79571;DHT22;69034;49.444;7.758;2023-08-24T14:35:22;31.20;44.20
79571;DHT22;69034;49.444;7.758;2023-08-24T14:39:23;31.00;44.50
79571;DHT22;69034;49.444;7.758;2023-08-24T14:43:23;31.00;45.00
79571;DHT22;69034;49.444;7.758;2023-08-24T14:47:25;31.10;45.10
79571;DHT22;69034;49.444;7.758;2023-08-24T14:51:26;31.10;45.40
79571;DHT22;69034;49.444;7.758;2023-08-24T14:55:27;31.00;45.90
79571;DHT22;69034;49.444;7.758;2023-08-24T14:59:27;30.90;46.10
79571;DHT22;69034;49.444;7.758;2023-08-24T15:03:28;30.90;46.40
79571;DHT22;69034;49.444;7.758;2023-08-24T15:07:30;30.80;46.60
79571;DHT22;69034;49.444;7.758;2023-08-24T15:11:30;30.70;46.80
79571;DHT22;69034;49.444;7.758;2023-08-24T15:15:34;30.80;46.70
79571;DHT22;69034;49.444;7.758;2023-08-24T15:19:37;30.70;47.20
79571;DHT22;69034;49.444;7.758;2023-08-24T15:23:37;30.60;47.40
79571;DHT22;69034;49.444;7.758;2023-08-24T15:27:38;30.60;47.70
79571;DHT22;69034;49.444;7.758;2023-08-24T15:31:39;30.50;48.30
79571;DHT22;69034;49.444;7.758;2023-08-24T15:35:40;30.40;48.30
79571;DHT22;69034;49.444;7.758;2023-08-24T15:39:42;30.50;48.80
79571;DHT22;69034;49.444;7.758;2023-08-24T15:43:42;30.50;49.40
79571;DHT22;69034;49.444;7.758;2023-08-24T15:47:43;30.00;50.60
79571;DHT22;69034;49.444;7.758;2023-08-24T15:51:43;29.60;51.20
79571;DHT22;69034;49.444;7.758;2023-08-24T15:55:44;29.50;50.90
79571;DHT22;69034;49.444;7.758;2023-08-24T15:59:45;29.50;51.10
79571;DHT22;69034;49.444;7.758;2023-08-24T16:03:45;29.20;51.70
79571;DHT22;69034;49.444;7.758;2023-08-24T16:07:46;29.00;52.00
79571;DHT22;69034;49.444;7.758;2023-08-24T16:11:47;28.80;52.20
79571;DHT22;69034;49.444;7.758;2023-08-24T16:15:48;28.70;52.60
79571;DHT22;69034;49.444;7.758;2023-08-24T16:19:49;28.60;53.00
79571;DHT22;69034;49.444;7.758;2023-08-24T16:23:50;28.60;53.80
79571;DHT22;69034;49.444;7.758;2023-08-24T16:27:51;28.60;53.80
79571;DHT22;69034;49.444;7.758;2023-08-24T16:31:55;28.70;53.30
79571;DHT22;69034;49.444;7.758;2023-08-24T16:35:58;28.70;53.20
79571;DHT22;69034;49.444;7.758;2023-08-24T16:40:02;28.70;53.60
79571;DHT22;69034;49.444;7.758;2023-08-24T16:44:03;28.60;54.00
79571;DHT22;69034;49.444;7.758;2023-08-24T16:48:04;28.60;54.40
79571;DHT22;69034;49.444;7.758;2023-08-24T16:52:05;28.50;55.10
79571;DHT22;69034;49.444;7.758;2023-08-24T16:56:11;28.40;55.60
79571;DHT22;69034;49.444;7.758;2023-08-24T17:00:13;28.30;56.00
79571;DHT22;69034;49.444;7.758;2023-08-24T17:04:13;28.10;56.10
79571;DHT22;69034;49.444;7.758;2023-08-24T17:08:14;28.10;56.20
79571;DHT22;69034;49.444;7.758;2023-08-24T17:12:16;28.00;56.10
79571;DHT22;69034;49.444;7.758;2023-08-24T17:16:17;27.90;56.10
79571;DHT22;69034;49.444;7.758;2023-08-24T17:20:17;27.80;56.40
79571;DHT22;69034;49.444;7.758;2023-08-24T17:24:20;27.70;56.80
79571;DHT22;69034;49.444;7.758;2023-08-24T17:28:20;27.60;57.30
79571;DHT22;69034;49.444;7.758;2023-08-24T17:32:21;27.50;57.70
79571;DHT22;69034;49.444;7.758;2023-08-24T17:36:27;27.40;57.90
79571;DHT22;69034;49.444;7.758;2023-08-24T17:40:29;27.40;58.80
79571;DHT22;69034;49.444;7.758;2023-08-24T17:44:30;27.50;58.90
79571;DHT22;69034;49.444;7.758;2023-08-24T17:48:32;27.60;58.90
79571;DHT22;69034;49.444;7.758;2023-08-24T17:52:33;27.60;58.80
79571;DHT22;69034;49.444;7.758;2023-08-24T17:56:33;27.70;58.60
79571;DHT22;69034;49.444;7.758;2023-08-24T18:00:34;27.80;58.40
79571;DHT22;69034;49.444;7.758;2023-08-24T18:04:35;27.80;58.30
79571;DHT22;69034;49.444;7.758;2023-08-24T18:08:36;27.90;58.10
79571;DHT22;69034;49.444;7.758;2023-08-24T18:12:36;27.90;58.00
79571;DHT22;69034;49.444;7.758;2023-08-24T18:16:37;27.80;57.90
79571;DHT22;69034;49.444;7.758;2023-08-24T18:20:38;27.80;57.90
79571;DHT22;69034;49.444;7.758;2023-08-24T18:24:39;27.80;57.80
79571;DHT22;69034;49.444;7.758;2023-08-24T18:28:40;27.80;57.70
79571;DHT22;69034;49.444;7.758;2023-08-24T18:32:41;27.80;57.60
79571;DHT22;69034;49.444;7.758;2023-08-24T18:36:42;27.70;57.60
79571;DHT22;69034;49.444;7.758;2023-08-24T18:40:43;27.70;57.80
79571;DHT22;69034;49.444;7.758;2023-08-24T18:44:46;27.60;57.80
79571;DHT22;69034;49.444;7.758;2023-08-24T18:48:47;27.20;58.90
79571;DHT22;69034;49.444;7.758;2023-08-24T18:52:49;26.90;59.50
79571;DHT22;69034;49.444;7.758;2023-08-24T18:56:49;27.00;59.40
79571;DHT22;69034;49.444;7.758;2023-08-24T19:00:53;27.00;59.30
79571;DHT22;69034;49.444;7.758;2023-08-24T19:04:54;27.00;59.70
79571;DHT22;69034;49.444;7.758;2023-08-24T19:08:55;26.90;60.00
79571;DHT22;69034;49.444;7.758;2023-08-24T19:12:56;26.80;60.20
79571;DHT22;69034;49.444;7.758;2023-08-24T19:16:57;26.70;60.50
79571;DHT22;69034;49.444;7.758;2023-08-24T19:20:58;26.70;60.70
79571;DHT22;69034;49.444;7.758;2023-08-24T19:25:00;26.70;60.70
79571;DHT22;69034;49.444;7.758;2023-08-24T19:29:03;26.60;60.80
79571;DHT22;69034;49.444;7.758;2023-08-24T19:33:07;26.60;61.10
79571;DHT22;69034;49.444;7.758;2023-08-24T19:37:07;26.60;61.20
79571;DHT22;69034;49.444;7.758;2023-08-24T19:41:08;26.50;61.20
79571;DHT22;69034;49.444;7.758;2023-08-24T19:45:09;26.40;61.50
79571;DHT22;69034;49.444;7.758;2023-08-24T19:49:09;26.20;61.80
79571;DHT22;69034;49.444;7.758;2023-08-24T19:53:10;26.10;61.90
79571;DHT22;69034;49.444;7.758;2023-08-24T19:57:12;26.00;62.00
79571;DHT22;69034;49.444;7.758;2023-08-24T20:01:14;25.90;62.10
79571;DHT22;69034;49.444;7.758;2023-08-24T20:05:17;25.90;62.10
79571;DHT22;69034;49.444;7.758;2023-08-24T20:09:18;25.90;62.20
79571;DHT22;69034;49.444;7.758;2023-08-24T20:13:19;25.80;62.40
79571;DHT22;69034;49.444;7.758;2023-08-24T20:17:21;25.80;62.40
79571;DHT22;69034;49.444;7.758;2023-08-24T20:21:23;25.70;62.40
79571;DHT22;69034;49.444;7.758;2023-08-24T20:25:26;25.70;62.40
79571;DHT22;69034;49.444;7.758;2023-08-24T20:29:26;25.70;62.50
79571;DHT22;69034;49.444;7.758;2023-08-24T20:33:28;25.70;62.50
79571;DHT22;69034;49.444;7.758;2023-08-24T20:37:28;25.70;62.70
79571;DHT22;69034;49.444;7.758;2023-08-24T20:41:31;25.60;62.80
79571;DHT22;69034;49.444;7.758;2023-08-24T20:45:32;25.60;62.90
79571;DHT22;69034;49.444;7.758;2023-08-24T20:49:32;25.50;63.20
79571;DHT22;69034;49.444;7.758;2023-08-24T20:53:33;25.50;63.10
79571;DHT22;69034;49.444;7.758;2023-08-24T20:57:34;25.40;63.30
79571;DHT22;69034;49.444;7.758;2023-08-24T21:01:35;25.30;63.60
79571;DHT22;69034;49.444;7.758;2023-08-24T21:05:35;25.10;63.90
79571;DHT22;69034;49.444;7.758;2023-08-24T21:09:36;25.10;64.00
79571;DHT22;69034;49.444;7.758;2023-08-24T21:13:36;25.20;64.00
79571;DHT22;69034;49.444;7.758;2023-08-24T21:17:38;25.20;64.10
79571;DHT22;69034;49.444;7.758;2023-08-24T21:21:41;25.10;64.10
79571;DHT22;69034;49.444;7.758;2023-08-24T21:25:41;25.10;64.30
79571;DHT22;69034;49.444;7.758;2023-08-24T21:29:43;25.10;64.20
79571;DHT22;69034;49.444;7.758;2023-08-24T21:33:44;24.90;64.60
79571;DHT22;69034;49.444;7.758;2023-08-24T21:37:45;24.80;64.90
79571;DHT22;69034;49.444;7.758;2023-08-24T21:41:47;24.60;65.30
79571;DHT22;69034;49.444;7.758;2023-08-24T21:46:14;24.50;65.60
79571;DHT22;69034;49.444;7.758;2023-08-24T21:50:15;24.40;66.10
79571;DHT22;69034;49.444;7.758;2023-08-24T21:54:16;24.40;66.00
79571;DHT22;69034;49.444;7.758;2023-08-24T21:58:16;24.30;66.10
79571;DHT22;69034;49.444;7.758;2023-08-24T22:02:17;24.30;66.10
79571;DHT22;69034;49.444;7.758;2023-08-24T22:06:18;24.30;66.30
79571;DHT22;69034;49.444;7.758;2023-08-24T22:10:18;24.30;66.20
79571;DHT22;69034;49.444;7.758;2023-08-24T22:14:19;24.30;66.20
79571;DHT22;69034;49.444;7.758;2023-08-24T22:18:21;24.30;66.20
79571;DHT22;69034;49.444;7.758;2023-08-24T22:22:21;24.40;66.10
79571;DHT22;69034;49.444;7.758;2023-08-24T22:26:22;24.50;65.90
79571;DHT22;69034;49.444;7.758;2023-08-24T22:30:23;24.50;65.80
79571;DHT22;69034;49.444;7.758;2023-08-24T22:34:23;24.60;65.70
79571;DHT22;69034;49.444;7.758;2023-08-24T22:38:24;24.60;65.70
79571;DHT22;69034;49.444;7.758;2023-08-24T22:42:25;24.60;65.70
79571;DHT22;69034;49.444;7.758;2023-08-24T22:46:26;24.60;65.80
79571;DHT22;69034;49.444;7.758;2023-08-24T22:50:27;24.60;65.80
79571;DHT22;69034;49.444;7.758;2023-08-24T22:54:28;24.50;65.90
79571;DHT22;69034;49.444;7.758;2023-08-24T22:58:30;24.40;66.10
79571;DHT22;69034;49.444;7.758;2023-08-24T23:02:30;24.40;66.30
79571;DHT22;69034;49.444;7.758;2023-08-24T23:10:46;24.30;66.60
79571;DHT22;69034;49.444;7.758;2023-08-24T23:14:47;24.20;66.50
79571;DHT22;69034;49.444;7.758;2023-08-24T23:18:48;24.20;66.50
79571;DHT22;69034;49.444;7.758;2023-08-24T23:22:51;24.20;66.40
79571;DHT22;69034;49.444;7.758;2023-08-24T23:26:51;24.10;66.60
79571;DHT22;69034;49.444;7.758;2023-08-24T23:30:52;23.90;66.60
79571;DHT22;69034;49.444;7.758;2023-08-24T23:34:52;23.80;66.80
79571;DHT22;69034;49.444;7.758;2023-08-24T23:38:53;23.70;66.90
79571;DHT22;69034;49.444;7.758;2023-08-24T23:42:54;23.60;67.00
79571;DHT22;69034;49.444;7.758;2023-08-24T23:46:54;23.60;67.00
79571;DHT22;69034;49.444;7.758;2023-08-24T23:50:55;23.50;67.10
79571;DHT22;69034;49.444;7.758;2023-08-24T23:54:57;23.40;67.30
79571;DHT22;69034;49.444;7.758;2023-08-24T23:58:58;23.40;67.30
